This is the latest recevied weather packets stored in our database for station/object KK4MOR. If no packets are shown the sender has not sent any weather packets the latest 10 day(s).
| Time | Temp. | Humidity | Pressure | Rain* | Wind** | Luminosity | Snow |
|---|---|---|---|---|---|---|---|
| 1777649423 | 16.67° C | 51% | 1014.2 hPa | 0 mm | - | - | - |
| 1777648524 | 16.67° C | 54% | 1014.1 hPa | 0 mm | - | - | - |
| 1777647620 | 16.67° C | 53% | 1013.9 hPa | 0 mm | - | - | - |
| 1777646779 | 16.11° C | 52% | 1014 hPa | 0 mm | - | - | - |
| 1777645819 | 16.11° C | 54% | 1014.1 hPa | 0 mm | - | - | - |
| 1777644919 | 15.56° C | 61% | 1014 hPa | 0 mm | - | - | - |
| 1777644010 | 15.56° C | 59% | 1013.6 hPa | 0 mm | - | - | - |
| 1777643108 | 15° C | 59% | 1013.6 hPa | 0 mm | - | - | - |
| 1777642211 | 14.44° C | 63% | 1013.6 hPa | 0 mm | - | - | - |
| 1777641301 | 13.89° C | 70% | 1013.5 hPa | 0 mm | - | - | - |
| 1777640460 | 12.78° C | 81% | 1013.5 hPa | 0 mm | - | - | - |
| 1777639552 | 11.11° C | 86% | 1013.6 hPa | 0 mm | - | - | - |
| 1777638649 | 8.89° C | 91% | 1013.6 hPa | 0 mm | - | - | - |
| 1777637748 | 7.22° C | 94% | 1013.6 hPa | 0 mm | - | - | - |
| 1777636847 | 6.67° C | 94% | 1013.4 hPa | 0 mm | - | - | - |
| 1777635947 | 6.11° C | 92% | 1013.1 hPa | 0 mm | - | - | - |
| 1777635050 | 6.11° C | 92% | 1012.9 hPa | 0 mm | - | - | - |
| 1777634143 | 6.11° C | 90% | 1012.6 hPa | 0 mm | - | - | - |
| 1777633243 | 6.11° C | 91% | 1012.6 hPa | 0 mm | - | - | - |
| 1777632342 | 6.11° C | 91% | 1012.6 hPa | 0 mm | - | - | - |
| 1777631444 | 6.11° C | 90% | 1012.5 hPa | 0 mm | - | - | - |
| 1777630549 | 6.11° C | 89% | 1012.5 hPa | 0 mm | - | - | - |
| 1777629648 | 6.11° C | 89% | 1012.7 hPa | 0 mm | - | - | - |
| 1777628755 | 6.67° C | 87% | 1012.7 hPa | 0 mm | - | - | - |
| 1777627835 | 6.67° C | 87% | 1012.4 hPa | 0 mm | - | - | - |
* Rain latest hour (hover to see other rain measurements)
** Current wind speed in m/s (hover to see current wind gust speed)